sensor_id;sensor_type;location;lat;lon;timestamp;P1;durP1;ratioP1;P2;durP2;ratioP2
75837;SDS011;64480;52.040;113.502;2023-09-19T00:01:34;15.38;;;6.47;;
75837;SDS011;64480;52.040;113.502;2023-09-19T00:04:40;13.32;;;6.72;;
75837;SDS011;64480;52.040;113.502;2023-09-19T00:07:47;18.00;;;6.63;;
75837;SDS011;64480;52.040;113.502;2023-09-19T00:10:52;23.17;;;7.32;;
75837;SDS011;64480;52.040;113.502;2023-09-19T00:13:58;24.58;;;7.63;;
75837;SDS011;64480;52.040;113.502;2023-09-19T00:17:02;20.88;;;8.60;;
75837;SDS011;64480;52.040;113.502;2023-09-19T00:20:11;33.03;;;11.90;;
75837;SDS011;64480;52.040;113.502;2023-09-19T00:23:24;27.25;;;10.43;;
75837;SDS011;64480;52.040;113.502;2023-09-19T00:26:29;23.73;;;8.70;;
75837;SDS011;64480;52.040;113.502;2023-09-19T00:29:44;17.77;;;8.95;;
75837;SDS011;64480;52.040;113.502;2023-09-19T00:33:01;20.85;;;8.98;;
75837;SDS011;64480;52.040;113.502;2023-09-19T00:36:13;28.23;;;9.45;;
75837;SDS011;64480;52.040;113.502;2023-09-19T00:39:19;19.17;;;8.15;;
75837;SDS011;64480;52.040;113.502;2023-09-19T00:42:29;23.77;;;9.43;;
75837;SDS011;64480;52.040;113.502;2023-09-19T00:45:33;24.77;;;8.63;;
75837;SDS011;64480;52.040;113.502;2023-09-19T00:48:44;29.60;;;10.85;;
75837;SDS011;64480;52.040;113.502;2023-09-19T00:52:03;19.70;;;9.25;;
75837;SDS011;64480;52.040;113.502;2023-09-19T00:55:10;28.02;;;9.98;;
75837;SDS011;64480;52.040;113.502;2023-09-19T00:58:20;30.73;;;9.25;;
75837;SDS011;64480;52.040;113.502;2023-09-19T01:01:37;20.73;;;8.65;;
75837;SDS011;64480;52.040;113.502;2023-09-19T01:04:55;22.80;;;10.55;;
75837;SDS011;64480;52.040;113.502;2023-09-19T01:08:09;23.25;;;8.77;;
75837;SDS011;64480;52.040;113.502;2023-09-19T01:11:36;21.17;;;8.13;;
75837;SDS011;64480;52.040;113.502;2023-09-19T01:14:54;28.70;;;8.88;;
75837;SDS011;64480;52.040;113.502;2023-09-19T01:18:21;19.98;;;8.05;;
75837;SDS011;64480;52.040;113.502;2023-09-19T01:21:44;24.20;;;8.07;;
75837;SDS011;64480;52.040;113.502;2023-09-19T01:24:55;33.97;;;7.60;;
75837;SDS011;64480;52.040;113.502;2023-09-19T01:35:21;25.42;;;9.80;;
75837;SDS011;64480;52.040;113.502;2023-09-19T01:38:25;33.72;;;10.07;;
75837;SDS011;64480;52.040;113.502;2023-09-19T01:41:35;24.20;;;9.10;;
75837;SDS011;64480;52.040;113.502;2023-09-19T01:45:20;21.08;;;7.25;;
75837;SDS011;64480;52.040;113.502;2023-09-19T01:48:41;25.27;;;7.70;;
75837;SDS011;64480;52.040;113.502;2023-09-19T01:52:00;19.33;;;7.53;;
75837;SDS011;64480;52.040;113.502;2023-09-19T01:55:16;25.00;;;7.85;;
75837;SDS011;64480;52.040;113.502;2023-09-19T02:01:49;19.67;;;6.18;;
75837;SDS011;64480;52.040;113.502;2023-09-19T02:04:59;28.73;;;7.10;;
75837;SDS011;64480;52.040;113.502;2023-09-19T02:08:05;24.45;;;7.20;;
75837;SDS011;64480;52.040;113.502;2023-09-19T02:11:11;24.65;;;6.63;;
75837;SDS011;64480;52.040;113.502;2023-09-19T02:14:17;21.25;;;6.82;;
75837;SDS011;64480;52.040;113.502;2023-09-19T02:17:22;21.98;;;6.95;;
75837;SDS011;64480;52.040;113.502;2023-09-19T02:20:30;21.38;;;9.25;;
75837;SDS011;64480;52.040;113.502;2023-09-19T02:23:36;16.67;;;7.25;;
75837;SDS011;64480;52.040;113.502;2023-09-19T02:26:44;18.40;;;7.47;;
75837;SDS011;64480;52.040;113.502;2023-09-19T02:30:01;22.30;;;7.60;;
75837;SDS011;64480;52.040;113.502;2023-09-19T02:33:05;20.48;;;7.80;;
75837;SDS011;64480;52.040;113.502;2023-09-19T02:36:20;16.80;;;6.95;;
75837;SDS011;64480;52.040;113.502;2023-09-19T02:39:26;19.45;;;6.65;;
75837;SDS011;64480;52.040;113.502;2023-09-19T02:42:30;15.90;;;6.00;;
75837;SDS011;64480;52.040;113.502;2023-09-19T02:45:39;15.27;;;5.32;;
75837;SDS011;64480;52.040;113.502;2023-09-19T02:48:43;15.63;;;5.72;;
75837;SDS011;64480;52.040;113.502;2023-09-19T02:51:47;20.90;;;6.40;;
75837;SDS011;64480;52.040;113.502;2023-09-19T02:54:57;13.32;;;6.10;;
75837;SDS011;64480;52.040;113.502;2023-09-19T02:58:17;14.55;;;4.65;;
75837;SDS011;64480;52.040;113.502;2023-09-19T03:01:50;17.17;;;6.95;;
75837;SDS011;64480;52.040;113.502;2023-09-19T03:05:05;16.55;;;5.45;;
75837;SDS011;64480;52.040;113.502;2023-09-19T03:08:18;15.13;;;4.25;;
75837;SDS011;64480;52.040;113.502;2023-09-19T03:11:22;12.20;;;4.53;;
75837;SDS011;64480;52.040;113.502;2023-09-19T03:14:32;8.15;;;2.70;;
75837;SDS011;64480;52.040;113.502;2023-09-19T03:17:42;9.88;;;4.28;;
75837;SDS011;64480;52.040;113.502;2023-09-19T03:20:56;13.63;;;4.07;;
75837;SDS011;64480;52.040;113.502;2023-09-19T03:27:13;7.97;;;4.10;;
75837;SDS011;64480;52.040;113.502;2023-09-19T03:30:18;6.55;;;2.95;;
75837;SDS011;64480;52.040;113.502;2023-09-19T03:33:23;8.18;;;4.00;;
75837;SDS011;64480;52.040;113.502;2023-09-19T03:36:41;10.07;;;3.88;;
75837;SDS011;64480;52.040;113.502;2023-09-19T03:39:45;11.10;;;4.22;;
75837;SDS011;64480;52.040;113.502;2023-09-19T03:42:55;15.05;;;3.80;;
75837;SDS011;64480;52.040;113.502;2023-09-19T03:46:05;8.13;;;5.50;;
75837;SDS011;64480;52.040;113.502;2023-09-19T03:49:16;10.00;;;4.65;;
75837;SDS011;64480;52.040;113.502;2023-09-19T03:52:29;15.68;;;9.50;;
75837;SDS011;64480;52.040;113.502;2023-09-19T03:55:47;11.68;;;2.75;;
75837;SDS011;64480;52.040;113.502;2023-09-19T03:58:53;6.57;;;2.28;;
75837;SDS011;64480;52.040;113.502;2023-09-19T04:01:57;4.05;;;2.42;;
75837;SDS011;64480;52.040;113.502;2023-09-19T04:05:02;13.10;;;2.92;;
75837;SDS011;64480;52.040;113.502;2023-09-19T04:08:07;16.88;;;4.55;;
75837;SDS011;64480;52.040;113.502;2023-09-19T04:11:12;6.03;;;2.63;;
75837;SDS011;64480;52.040;113.502;2023-09-19T04:14:50;10.85;;;2.70;;
75837;SDS011;64480;52.040;113.502;2023-09-19T04:17:56;20.45;;;3.08;;
75837;SDS011;64480;52.040;113.502;2023-09-19T04:21:13;9.15;;;2.65;;
75837;SDS011;64480;52.040;113.502;2023-09-19T04:24:31;10.82;;;3.40;;
75837;SDS011;64480;52.040;113.502;2023-09-19T04:27:51;8.38;;;2.50;;
75837;SDS011;64480;52.040;113.502;2023-09-19T04:34:28;21.60;;;13.88;;
75837;SDS011;64480;52.040;113.502;2023-09-19T04:37:46;9.93;;;3.08;;
75837;SDS011;64480;52.040;113.502;2023-09-19T04:41:09;12.23;;;3.80;;
75837;SDS011;64480;52.040;113.502;2023-09-19T04:44:27;10.15;;;3.28;;
75837;SDS011;64480;52.040;113.502;2023-09-19T04:47:38;4.72;;;2.13;;
75837;SDS011;64480;52.040;113.502;2023-09-19T04:50:44;7.60;;;2.30;;
75837;SDS011;64480;52.040;113.502;2023-09-19T04:54:00;6.60;;;2.22;;
75837;SDS011;64480;52.040;113.502;2023-09-19T04:57:15;4.65;;;2.20;;
75837;SDS011;64480;52.040;113.502;2023-09-19T05:00:32;9.35;;;2.25;;
75837;SDS011;64480;52.040;113.502;2023-09-19T05:03:51;10.48;;;4.88;;
75837;SDS011;64480;52.040;113.502;2023-09-19T05:06:57;14.90;;;2.67;;
75837;SDS011;64480;52.040;113.502;2023-09-19T05:13:37;7.63;;;3.10;;
75837;SDS011;64480;52.040;113.502;2023-09-19T05:17:05;5.70;;;1.77;;
75837;SDS011;64480;52.040;113.502;2023-09-19T05:20:31;8.68;;;3.00;;
75837;SDS011;64480;52.040;113.502;2023-09-19T05:23:39;6.55;;;2.00;;
75837;SDS011;64480;52.040;113.502;2023-09-19T05:26:43;5.43;;;2.13;;
75837;SDS011;64480;52.040;113.502;2023-09-19T05:29:49;9.00;;;2.70;;
75837;SDS011;64480;52.040;113.502;2023-09-19T05:33:09;6.38;;;2.03;;
75837;SDS011;64480;52.040;113.502;2023-09-19T05:36:31;5.80;;;2.28;;
75837;SDS011;64480;52.040;113.502;2023-09-19T05:39:48;9.48;;;2.17;;
75837;SDS011;64480;52.040;113.502;2023-09-19T05:43:10;4.28;;;1.73;;
75837;SDS011;64480;52.040;113.502;2023-09-19T05:46:39;6.50;;;1.45;;
75837;SDS011;64480;52.040;113.502;2023-09-19T05:49:56;8.50;;;2.63;;
75837;SDS011;64480;52.040;113.502;2023-09-19T05:53:13;8.05;;;2.33;;
75837;SDS011;64480;52.040;113.502;2023-09-19T05:56:35;7.70;;;2.00;;
75837;SDS011;64480;52.040;113.502;2023-09-19T05:59:58;5.32;;;2.72;;
75837;SDS011;64480;52.040;113.502;2023-09-19T06:03:16;7.90;;;2.80;;
75837;SDS011;64480;52.040;113.502;2023-09-19T06:06:37;3.70;;;1.70;;
75837;SDS011;64480;52.040;113.502;2023-09-19T06:09:57;3.72;;;1.63;;
75837;SDS011;64480;52.040;113.502;2023-09-19T06:13:16;7.00;;;1.95;;
75837;SDS011;64480;52.040;113.502;2023-09-19T06:16:35;6.47;;;2.33;;
75837;SDS011;64480;52.040;113.502;2023-09-19T06:19:56;9.52;;;1.95;;
75837;SDS011;64480;52.040;113.502;2023-09-19T06:23:13;7.20;;;1.55;;
75837;SDS011;64480;52.040;113.502;2023-09-19T06:26:31;6.20;;;1.88;;
75837;SDS011;64480;52.040;113.502;2023-09-19T06:29:48;8.85;;;1.67;;
75837;SDS011;64480;52.040;113.502;2023-09-19T06:33:04;2.80;;;1.35;;
75837;SDS011;64480;52.040;113.502;2023-09-19T06:36:22;4.65;;;1.98;;
75837;SDS011;64480;52.040;113.502;2023-09-19T06:39:29;4.35;;;1.95;;
75837;SDS011;64480;52.040;113.502;2023-09-19T06:42:36;3.83;;;1.67;;
75837;SDS011;64480;52.040;113.502;2023-09-19T06:45:41;4.72;;;1.90;;
75837;SDS011;64480;52.040;113.502;2023-09-19T06:48:46;6.03;;;2.08;;
75837;SDS011;64480;52.040;113.502;2023-09-19T06:51:55;9.07;;;2.80;;
75837;SDS011;64480;52.040;113.502;2023-09-19T06:55:04;5.57;;;1.65;;
75837;SDS011;64480;52.040;113.502;2023-09-19T06:58:10;6.38;;;1.88;;
75837;SDS011;64480;52.040;113.502;2023-09-19T07:01:16;16.50;;;7.95;;
75837;SDS011;64480;52.040;113.502;2023-09-19T07:04:35;5.03;;;1.80;;
75837;SDS011;64480;52.040;113.502;2023-09-19T07:08:02;4.85;;;2.35;;
75837;SDS011;64480;52.040;113.502;2023-09-19T07:11:07;7.63;;;2.10;;
75837;SDS011;64480;52.040;113.502;2023-09-19T07:14:25;4.50;;;1.90;;
75837;SDS011;64480;52.040;113.502;2023-09-19T07:17:43;3.90;;;1.90;;
75837;SDS011;64480;52.040;113.502;2023-09-19T07:20:48;4.68;;;1.88;;
75837;SDS011;64480;52.040;113.502;2023-09-19T07:23:53;9.40;;;2.35;;
75837;SDS011;64480;52.040;113.502;2023-09-19T07:26:58;5.18;;;2.05;;
75837;SDS011;64480;52.040;113.502;2023-09-19T07:30:06;5.18;;;1.58;;
75837;SDS011;64480;52.040;113.502;2023-09-19T07:33:12;5.00;;;1.83;;
75837;SDS011;64480;52.040;113.502;2023-09-19T07:36:16;3.65;;;1.48;;
75837;SDS011;64480;52.040;113.502;2023-09-19T07:39:28;7.60;;;2.10;;
75837;SDS011;64480;52.040;113.502;2023-09-19T07:42:40;3.53;;;1.70;;
75837;SDS011;64480;52.040;113.502;2023-09-19T07:45:47;4.82;;;1.35;;
75837;SDS011;64480;52.040;113.502;2023-09-19T07:49:05;7.47;;;1.77;;
75837;SDS011;64480;52.040;113.502;2023-09-19T07:52:14;8.85;;;2.33;;
75837;SDS011;64480;52.040;113.502;2023-09-19T08:17:37;3.58;;;1.20;;
75837;SDS011;64480;52.040;113.502;2023-09-19T08:20:54;7.72;;;1.88;;
75837;SDS011;64480;52.040;113.502;2023-09-19T08:24:10;6.43;;;1.98;;
75837;SDS011;64480;52.040;113.502;2023-09-19T08:27:29;6.15;;;2.03;;
75837;SDS011;64480;52.040;113.502;2023-09-19T08:30:55;3.67;;;1.65;;
75837;SDS011;64480;52.040;113.502;2023-09-19T08:34:13;3.20;;;1.17;;
75837;SDS011;64480;52.040;113.502;2023-09-19T08:37:20;8.65;;;5.47;;
75837;SDS011;64480;52.040;113.502;2023-09-19T08:40:41;7.10;;;2.60;;
75837;SDS011;64480;52.040;113.502;2023-09-19T08:43:49;4.15;;;1.80;;
75837;SDS011;64480;52.040;113.502;2023-09-19T08:47:10;3.25;;;2.20;;
75837;SDS011;64480;52.040;113.502;2023-09-19T08:50:30;10.43;;;1.83;;
75837;SDS011;64480;52.040;113.502;2023-09-19T08:57:34;3.50;;;1.77;;
75837;SDS011;64480;52.040;113.502;2023-09-19T09:00:47;4.22;;;1.63;;
75837;SDS011;64480;52.040;113.502;2023-09-19T09:03:56;5.28;;;2.38;;
75837;SDS011;64480;52.040;113.502;2023-09-19T09:07:14;3.30;;;1.70;;
75837;SDS011;64480;52.040;113.502;2023-09-19T09:13:29;13.50;;;2.22;;
75837;SDS011;64480;52.040;113.502;2023-09-19T09:16:47;5.53;;;1.52;;
75837;SDS011;64480;52.040;113.502;2023-09-19T09:20:05;12.13;;;2.70;;
75837;SDS011;64480;52.040;113.502;2023-09-19T09:23:34;3.85;;;1.98;;
75837;SDS011;64480;52.040;113.502;2023-09-19T09:26:50;12.70;;;3.83;;
75837;SDS011;64480;52.040;113.502;2023-09-19T09:30:04;4.93;;;1.67;;
75837;SDS011;64480;52.040;113.502;2023-09-19T09:33:39;7.03;;;2.00;;
75837;SDS011;64480;52.040;113.502;2023-09-19T09:37:00;5.03;;;1.90;;
75837;SDS011;64480;52.040;113.502;2023-09-19T09:40:49;5.75;;;2.05;;
75837;SDS011;64480;52.040;113.502;2023-09-19T09:44:17;5.97;;;2.20;;
75837;SDS011;64480;52.040;113.502;2023-09-19T09:47:45;10.45;;;3.35;;
75837;SDS011;64480;52.040;113.502;2023-09-19T09:51:09;8.75;;;2.85;;
75837;SDS011;64480;52.040;113.502;2023-09-19T09:54:20;10.95;;;3.20;;
75837;SDS011;64480;52.040;113.502;2023-09-19T09:57:44;4.47;;;1.65;;
75837;SDS011;64480;52.040;113.502;2023-09-19T10:01:06;6.65;;;1.77;;
75837;SDS011;64480;52.040;113.502;2023-09-19T10:04:27;3.17;;;1.40;;
75837;SDS011;64480;52.040;113.502;2023-09-19T10:07:48;7.55;;;1.98;;
75837;SDS011;64480;52.040;113.502;2023-09-19T10:11:00;13.55;;;3.28;;
75837;SDS011;64480;52.040;113.502;2023-09-19T10:14:25;8.80;;;2.60;;
75837;SDS011;64480;52.040;113.502;2023-09-19T10:17:37;9.30;;;3.28;;
75837;SDS011;64480;52.040;113.502;2023-09-19T10:20:57;12.38;;;3.95;;
75837;SDS011;64480;52.040;113.502;2023-09-19T10:24:23;10.48;;;4.00;;
75837;SDS011;64480;52.040;113.502;2023-09-19T10:27:33;17.83;;;5.10;;
75837;SDS011;64480;52.040;113.502;2023-09-19T10:30:55;13.82;;;4.13;;
75837;SDS011;64480;52.040;113.502;2023-09-19T10:34:15;9.85;;;3.97;;
75837;SDS011;64480;52.040;113.502;2023-09-19T10:37:33;10.30;;;3.90;;
75837;SDS011;64480;52.040;113.502;2023-09-19T10:40:41;22.95;;;6.32;;
75837;SDS011;64480;52.040;113.502;2023-09-19T10:43:49;15.43;;;5.05;;
75837;SDS011;64480;52.040;113.502;2023-09-19T10:47:12;12.02;;;4.53;;
75837;SDS011;64480;52.040;113.502;2023-09-19T10:51:21;13.65;;;4.20;;
75837;SDS011;64480;52.040;113.502;2023-09-19T10:54:08;15.55;;;4.75;;
75837;SDS011;64480;52.040;113.502;2023-09-19T10:57:29;12.02;;;4.13;;
75837;SDS011;64480;52.040;113.502;2023-09-19T11:00:53;17.08;;;4.55;;
75837;SDS011;64480;52.040;113.502;2023-09-19T11:04:41;9.23;;;3.83;;
75837;SDS011;64480;52.040;113.502;2023-09-19T11:08:18;10.20;;;3.20;;
75837;SDS011;64480;52.040;113.502;2023-09-19T11:11:58;11.32;;;3.60;;
75837;SDS011;64480;52.040;113.502;2023-09-19T11:19:19;10.75;;;3.33;;
75837;SDS011;64480;52.040;113.502;2023-09-19T11:26:10;14.32;;;4.20;;
75837;SDS011;64480;52.040;113.502;2023-09-19T11:30:26;8.77;;;3.78;;
75837;SDS011;64480;52.040;113.502;2023-09-19T11:33:50;11.93;;;3.50;;
75837;SDS011;64480;52.040;113.502;2023-09-19T11:44:47;10.77;;;3.17;;
75837;SDS011;64480;52.040;113.502;2023-09-19T11:48:08;11.40;;;3.40;;
75837;SDS011;64480;52.040;113.502;2023-09-19T11:51:42;13.60;;;3.53;;
75837;SDS011;64480;52.040;113.502;2023-09-19T11:55:05;9.70;;;3.90;;
75837;SDS011;64480;52.040;113.502;2023-09-19T11:58:30;17.08;;;4.18;;
75837;SDS011;64480;52.040;113.502;2023-09-19T12:01:43;12.73;;;4.97;;
75837;SDS011;64480;52.040;113.502;2023-09-19T12:05:05;18.83;;;5.13;;
75837;SDS011;64480;52.040;113.502;2023-09-19T12:11:44;33.33;;;11.48;;
75837;SDS011;64480;52.040;113.502;2023-09-19T12:21:35;40.42;;;14.52;;
75837;SDS011;64480;52.040;113.502;2023-09-19T12:25:02;55.42;;;15.20;;
75837;SDS011;64480;52.040;113.502;2023-09-19T12:28:17;40.38;;;16.73;;
75837;SDS011;64480;52.040;113.502;2023-09-19T12:31:58;44.33;;;18.30;;
75837;SDS011;64480;52.040;113.502;2023-09-19T12:35:29;38.88;;;16.30;;
75837;SDS011;64480;52.040;113.502;2023-09-19T12:38:50;34.72;;;15.15;;
75837;SDS011;64480;52.040;113.502;2023-09-19T12:42:28;33.30;;;13.82;;
75837;SDS011;64480;52.040;113.502;2023-09-19T12:45:51;27.17;;;11.82;;
75837;SDS011;64480;52.040;113.502;2023-09-19T12:49:15;25.13;;;10.95;;
75837;SDS011;64480;52.040;113.502;2023-09-19T12:52:34;27.00;;;10.95;;
75837;SDS011;64480;52.040;113.502;2023-09-19T12:55:58;27.45;;;9.82;;
75837;SDS011;64480;52.040;113.502;2023-09-19T12:59:16;24.67;;;11.43;;
75837;SDS011;64480;52.040;113.502;2023-09-19T13:02:35;25.50;;;11.02;;
75837;SDS011;64480;52.040;113.502;2023-09-19T13:05:51;33.53;;;12.75;;
75837;SDS011;64480;52.040;113.502;2023-09-19T13:09:11;35.47;;;13.32;;
75837;SDS011;64480;52.040;113.502;2023-09-19T13:12:35;27.95;;;11.60;;
75837;SDS011;64480;52.040;113.502;2023-09-19T13:15:55;31.45;;;13.90;;
75837;SDS011;64480;52.040;113.502;2023-09-19T13:19:34;36.55;;;13.73;;
75837;SDS011;64480;52.040;113.502;2023-09-19T13:23:25;35.63;;;14.32;;
75837;SDS011;64480;52.040;113.502;2023-09-19T13:26:45;40.67;;;17.00;;
75837;SDS011;64480;52.040;113.502;2023-09-19T13:30:03;36.78;;;16.70;;
75837;SDS011;64480;52.040;113.502;2023-09-19T13:33:14;41.30;;;17.80;;
75837;SDS011;64480;52.040;113.502;2023-09-19T13:36:37;48.00;;;18.90;;
75837;SDS011;64480;52.040;113.502;2023-09-19T13:40:00;43.70;;;17.88;;
75837;SDS011;64480;52.040;113.502;2023-09-19T13:43:09;45.05;;;18.40;;
75837;SDS011;64480;52.040;113.502;2023-09-19T13:46:29;44.63;;;17.58;;
75837;SDS011;64480;52.040;113.502;2023-09-19T13:49:53;38.05;;;15.02;;
75837;SDS011;64480;52.040;113.502;2023-09-19T13:52:58;37.78;;;16.30;;
75837;SDS011;64480;52.040;113.502;2023-09-19T13:56:17;34.75;;;13.35;;
75837;SDS011;64480;52.040;113.502;2023-09-19T13:59:35;32.03;;;11.57;;
75837;SDS011;64480;52.040;113.502;2023-09-19T14:02:52;32.35;;;11.10;;
75837;SDS011;64480;52.040;113.502;2023-09-19T14:06:10;30.45;;;13.80;;
75837;SDS011;64480;52.040;113.502;2023-09-19T14:09:18;30.58;;;13.00;;
75837;SDS011;64480;52.040;113.502;2023-09-19T14:12:23;27.67;;;13.98;;
75837;SDS011;64480;52.040;113.502;2023-09-19T14:15:40;37.40;;;14.80;;
75837;SDS011;64480;52.040;113.502;2023-09-19T14:18:52;41.42;;;15.80;;
75837;SDS011;64480;52.040;113.502;2023-09-19T14:21:56;37.42;;;16.02;;
75837;SDS011;64480;52.040;113.502;2023-09-19T14:25:13;43.65;;;17.00;;
75837;SDS011;64480;52.040;113.502;2023-09-19T14:28:24;36.00;;;16.77;;
75837;SDS011;64480;52.040;113.502;2023-09-19T14:31:41;35.38;;;14.30;;
75837;SDS011;64480;52.040;113.502;2023-09-19T14:34:59;29.45;;;11.75;;
75837;SDS011;64480;52.040;113.502;2023-09-19T14:38:20;41.15;;;13.77;;
75837;SDS011;64480;52.040;113.502;2023-09-19T14:41:25;35.22;;;12.88;;
75837;SDS011;64480;52.040;113.502;2023-09-19T14:44:32;29.80;;;11.40;;
75837;SDS011;64480;52.040;113.502;2023-09-19T14:47:36;29.23;;;11.18;;
75837;SDS011;64480;52.040;113.502;2023-09-19T14:50:45;19.63;;;10.00;;
75837;SDS011;64480;52.040;113.502;2023-09-19T14:54:04;24.17;;;10.50;;
75837;SDS011;64480;52.040;113.502;2023-09-19T14:57:13;27.33;;;9.77;;
75837;SDS011;64480;52.040;113.502;2023-09-19T15:00:18;23.27;;;9.25;;
75837;SDS011;64480;52.040;113.502;2023-09-19T15:03:25;28.77;;;9.38;;
75837;SDS011;64480;52.040;113.502;2023-09-19T15:06:32;22.23;;;8.98;;
75837;SDS011;64480;52.040;113.502;2023-09-19T15:09:39;40.60;;;9.75;;
75837;SDS011;64480;52.040;113.502;2023-09-19T15:12:47;23.98;;;9.65;;
75837;SDS011;64480;52.040;113.502;2023-09-19T15:15:59;33.42;;;11.05;;
75837;SDS011;64480;52.040;113.502;2023-09-19T15:19:03;27.00;;;10.35;;
75837;SDS011;64480;52.040;113.502;2023-09-19T15:22:08;26.10;;;9.57;;
75837;SDS011;64480;52.040;113.502;2023-09-19T15:25:19;23.00;;;10.38;;
75837;SDS011;64480;52.040;113.502;2023-09-19T15:28:29;22.98;;;9.70;;
75837;SDS011;64480;52.040;113.502;2023-09-19T15:31:36;30.33;;;10.80;;
75837;SDS011;64480;52.040;113.502;2023-09-19T15:34:40;38.25;;;12.25;;
75837;SDS011;64480;52.040;113.502;2023-09-19T15:37:48;38.45;;;13.18;;
75837;SDS011;64480;52.040;113.502;2023-09-19T15:40:57;33.85;;;13.02;;
75837;SDS011;64480;52.040;113.502;2023-09-19T15:44:21;35.45;;;13.65;;
75837;SDS011;64480;52.040;113.502;2023-09-19T15:47:48;34.83;;;14.57;;
75837;SDS011;64480;52.040;113.502;2023-09-19T15:51:09;27.67;;;12.93;;
75837;SDS011;64480;52.040;113.502;2023-09-19T15:54:16;34.13;;;13.77;;
75837;SDS011;64480;52.040;113.502;2023-09-19T15:57:21;34.42;;;11.40;;
75837;SDS011;64480;52.040;113.502;2023-09-19T16:00:29;29.10;;;12.15;;
75837;SDS011;64480;52.040;113.502;2023-09-19T16:07:12;22.83;;;11.80;;
75837;SDS011;64480;52.040;113.502;2023-09-19T16:10:19;23.50;;;10.77;;
75837;SDS011;64480;52.040;113.502;2023-09-19T16:13:26;24.70;;;9.98;;
75837;SDS011;64480;52.040;113.502;2023-09-19T16:16:31;25.15;;;9.70;;
75837;SDS011;64480;52.040;113.502;2023-09-19T16:19:37;24.48;;;10.38;;
75837;SDS011;64480;52.040;113.502;2023-09-19T16:22:45;25.35;;;10.25;;
75837;SDS011;64480;52.040;113.502;2023-09-19T16:25:59;22.65;;;10.18;;
75837;SDS011;64480;52.040;113.502;2023-09-19T16:29:10;20.52;;;9.00;;
75837;SDS011;64480;52.040;113.502;2023-09-19T16:32:18;22.75;;;8.02;;
75837;SDS011;64480;52.040;113.502;2023-09-19T16:35:24;18.25;;;7.20;;
75837;SDS011;64480;52.040;113.502;2023-09-19T16:38:29;14.45;;;7.25;;
75837;SDS011;64480;52.040;113.502;2023-09-19T16:41:32;17.10;;;8.20;;
75837;SDS011;64480;52.040;113.502;2023-09-19T16:44:37;22.17;;;8.05;;
75837;SDS011;64480;52.040;113.502;2023-09-19T16:47:49;17.95;;;7.72;;
75837;SDS011;64480;52.040;113.502;2023-09-19T16:50:53;24.40;;;7.38;;
75837;SDS011;64480;52.040;113.502;2023-09-19T16:53:59;16.40;;;5.93;;
75837;SDS011;64480;52.040;113.502;2023-09-19T16:57:06;14.45;;;6.28;;
75837;SDS011;64480;52.040;113.502;2023-09-19T17:00:13;12.48;;;5.70;;
75837;SDS011;64480;52.040;113.502;2023-09-19T17:03:23;13.27;;;6.40;;
75837;SDS011;64480;52.040;113.502;2023-09-19T17:06:28;14.48;;;5.57;;
75837;SDS011;64480;52.040;113.502;2023-09-19T17:09:32;14.73;;;6.10;;
75837;SDS011;64480;52.040;113.502;2023-09-19T17:12:42;14.48;;;5.70;;
75837;SDS011;64480;52.040;113.502;2023-09-19T17:15:58;14.20;;;5.90;;
75837;SDS011;64480;52.040;113.502;2023-09-19T17:19:10;11.20;;;4.78;;
75837;SDS011;64480;52.040;113.502;2023-09-19T17:22:15;13.38;;;5.28;;
75837;SDS011;64480;52.040;113.502;2023-09-19T17:25:20;10.70;;;5.65;;
75837;SDS011;64480;52.040;113.502;2023-09-19T17:28:25;15.32;;;5.00;;
75837;SDS011;64480;52.040;113.502;2023-09-19T17:31:29;12.30;;;5.57;;
75837;SDS011;64480;52.040;113.502;2023-09-19T17:34:33;9.00;;;4.47;;
75837;SDS011;64480;52.040;113.502;2023-09-19T17:37:39;13.00;;;5.07;;
75837;SDS011;64480;52.040;113.502;2023-09-19T17:40:43;18.35;;;5.97;;
75837;SDS011;64480;52.040;113.502;2023-09-19T17:43:51;12.63;;;6.05;;
75837;SDS011;64480;52.040;113.502;2023-09-19T17:46:56;20.70;;;7.45;;
75837;SDS011;64480;52.040;113.502;2023-09-19T17:50:00;16.17;;;6.63;;
75837;SDS011;64480;52.040;113.502;2023-09-19T17:53:06;16.20;;;6.88;;
75837;SDS011;64480;52.040;113.502;2023-09-19T17:56:11;17.65;;;7.50;;
75837;SDS011;64480;52.040;113.502;2023-09-19T17:59:17;17.50;;;7.57;;
75837;SDS011;64480;52.040;113.502;2023-09-19T18:02:22;24.38;;;8.43;;
75837;SDS011;64480;52.040;113.502;2023-09-19T18:05:25;19.05;;;7.07;;
75837;SDS011;64480;52.040;113.502;2023-09-19T18:08:28;19.45;;;7.32;;
75837;SDS011;64480;52.040;113.502;2023-09-19T18:11:32;16.77;;;7.88;;
75837;SDS011;64480;52.040;113.502;2023-09-19T18:14:37;18.38;;;7.55;;
75837;SDS011;64480;52.040;113.502;2023-09-19T18:17:40;16.58;;;6.93;;
75837;SDS011;64480;52.040;113.502;2023-09-19T18:20:44;14.80;;;5.43;;
75837;SDS011;64480;52.040;113.502;2023-09-19T18:23:52;17.20;;;5.95;;
75837;SDS011;64480;52.040;113.502;2023-09-19T18:27:04;13.30;;;6.13;;
75837;SDS011;64480;52.040;113.502;2023-09-19T18:30:07;13.38;;;5.88;;
75837;SDS011;64480;52.040;113.502;2023-09-19T18:33:11;14.30;;;5.75;;
75837;SDS011;64480;52.040;113.502;2023-09-19T18:36:16;14.10;;;5.97;;
75837;SDS011;64480;52.040;113.502;2023-09-19T18:39:20;15.52;;;6.63;;
75837;SDS011;64480;52.040;113.502;2023-09-19T18:42:26;15.20;;;6.72;;
75837;SDS011;64480;52.040;113.502;2023-09-19T18:45:30;15.35;;;6.78;;
75837;SDS011;64480;52.040;113.502;2023-09-19T18:48:42;14.48;;;6.05;;
75837;SDS011;64480;52.040;113.502;2023-09-19T18:51:50;18.38;;;6.75;;
75837;SDS011;64480;52.040;113.502;2023-09-19T18:54:56;13.38;;;6.18;;
75837;SDS011;64480;52.040;113.502;2023-09-19T18:58:01;13.25;;;5.78;;
75837;SDS011;64480;52.040;113.502;2023-09-19T19:01:06;12.23;;;4.93;;
75837;SDS011;64480;52.040;113.502;2023-09-19T19:04:12;10.38;;;4.10;;
75837;SDS011;64480;52.040;113.502;2023-09-19T19:07:16;10.25;;;4.57;;
75837;SDS011;64480;52.040;113.502;2023-09-19T19:10:25;9.93;;;4.00;;
75837;SDS011;64480;52.040;113.502;2023-09-19T19:13:29;10.15;;;4.90;;
75837;SDS011;64480;52.040;113.502;2023-09-19T19:16:33;12.00;;;4.68;;
75837;SDS011;64480;52.040;113.502;2023-09-19T19:19:40;12.30;;;5.25;;
75837;SDS011;64480;52.040;113.502;2023-09-19T19:22:47;13.18;;;5.07;;
75837;SDS011;64480;52.040;113.502;2023-09-19T19:25:51;13.20;;;4.63;;
75837;SDS011;64480;52.040;113.502;2023-09-19T19:28:57;11.05;;;4.22;;
75837;SDS011;64480;52.040;113.502;2023-09-19T19:32:01;13.27;;;4.88;;
75837;SDS011;64480;52.040;113.502;2023-09-19T19:35:05;12.60;;;5.55;;
75837;SDS011;64480;52.040;113.502;2023-09-19T19:38:09;10.73;;;4.38;;
75837;SDS011;64480;52.040;113.502;2023-09-19T19:41:13;10.05;;;3.95;;
75837;SDS011;64480;52.040;113.502;2023-09-19T19:44:18;7.22;;;4.03;;
75837;SDS011;64480;52.040;113.502;2023-09-19T19:47:24;12.07;;;4.80;;
75837;SDS011;64480;52.040;113.502;2023-09-19T19:50:29;10.95;;;5.63;;
75837;SDS011;64480;52.040;113.502;2023-09-19T19:53:34;14.27;;;5.30;;
75837;SDS011;64480;52.040;113.502;2023-09-19T19:56:37;8.80;;;5.20;;